createdAt,value
2019-05-30T00:00:06.755Z,101885.08
2019-05-30T00:02:28.692Z,101879.81
2019-05-30T00:05:02.990Z,101882.42
2019-05-30T00:07:36.610Z,101879.37
2019-05-30T00:10:10.015Z,101879.79
2019-05-30T00:12:43.407Z,101893.36
2019-05-30T00:15:17.519Z,101889.81
2019-05-30T00:17:50.961Z,101893.34
2019-05-30T00:20:24.336Z,101893.69
2019-05-30T00:22:58.825Z,101896.31
2019-05-30T00:25:32.404Z,101893.23
2019-05-30T00:28:05.930Z,101903.74
2019-05-30T00:30:39.367Z,101896.27
2019-05-30T00:33:12.811Z,101898.00
2019-05-30T00:35:46.236Z,101899.77
2019-05-30T00:38:20.662Z,101904.98
2019-05-30T00:40:54.052Z,101844.33
2019-05-30T00:43:27.493Z,101909.73
2019-05-30T00:46:02.085Z,101918.02
2019-05-30T00:48:35.550Z,101920.63
2019-05-30T00:51:08.958Z,101915.81
2019-05-30T00:53:42.339Z,101908.82
2019-05-30T00:56:15.722Z,101908.81
2019-05-30T00:58:49.177Z,101911.43
2019-05-30T01:01:22.640Z,101908.33
2019-05-30T01:03:56.728Z,101905.71
2019-05-30T01:06:31.524Z,101903.06
2019-05-30T01:09:05.443Z,101898.23
2019-05-30T01:11:38.890Z,101897.36
2019-05-30T01:14:12.308Z,101896.91
2019-05-30T01:16:45.730Z,101903.89
2019-05-30T01:19:19.182Z,101895.52
2019-05-30T01:21:54.278Z,101894.59
2019-05-30T01:24:27.801Z,101899.36
2019-05-30T01:27:01.365Z,101893.56
2019-05-30T01:29:34.884Z,101900.60
2019-05-30T01:32:25.625Z,101899.77
2019-05-30T01:34:59.936Z,101895.41
2019-05-30T01:37:33.369Z,101895.83
2019-05-30T01:40:08.716Z,101892.77
2019-05-30T01:42:43.114Z,101895.78
2019-05-30T01:45:16.661Z,101902.27
2019-05-30T01:47:50.084Z,101905.23
2019-05-30T01:50:23.829Z,101900.77
2019-05-30T01:52:58.378Z,101902.45
2019-05-30T01:55:31.936Z,101903.71
2019-05-30T01:58:05.352Z,101904.59
2019-05-30T02:00:41.069Z,101904.89
2019-05-30T02:03:14.576Z,101907.83
2019-05-30T02:05:48.141Z,101902.95
2019-05-30T02:08:21.858Z,101906.42
2019-05-30T02:10:55.261Z,101902.77
2019-05-30T02:13:28.672Z,101900.98
2019-05-30T02:16:03.634Z,101901.30
2019-05-30T02:18:37.209Z,101898.13
2019-05-30T02:21:10.671Z,101905.17
2019-05-30T02:23:44.144Z,101905.61
2019-05-30T02:26:17.664Z,101908.25
2019-05-30T02:28:51.073Z,101910.52
2019-05-30T02:31:38.439Z,101917.48
2019-05-30T02:34:00.979Z,101908.28
2019-05-30T02:36:34.668Z,101915.19
2019-05-30T02:39:11.367Z,101913.88
2019-05-30T02:41:44.648Z,101915.59
2019-05-30T02:44:18.021Z,101921.71
2019-05-30T02:46:53.111Z,101926.92
2019-05-30T02:49:26.597Z,101931.73
2019-05-30T02:52:00.028Z,101932.13
2019-05-30T02:54:33.462Z,101927.36
2019-05-30T02:57:07.901Z,101932.19
2019-05-30T02:59:41.903Z,101938.69
2019-05-30T03:02:17.613Z,101937.72
2019-05-30T03:04:50.462Z,101948.60
2019-05-30T03:07:24.071Z,101939.41
2019-05-30T03:09:57.721Z,101942.52
2019-05-30T03:12:31.384Z,101945.64
2019-05-30T03:15:07.358Z,101943.48
2019-05-30T03:18:21.060Z,101948.34
2019-05-30T03:20:54.590Z,101952.72
2019-05-30T03:23:28.583Z,101947.42
2019-05-30T03:26:02.543Z,101950.07
2019-05-30T03:28:37.593Z,101951.32
2019-05-30T03:31:23.057Z,101958.34
2019-05-30T03:33:46.823Z,101953.53
2019-05-30T03:36:30.046Z,101950.06
2019-05-30T03:38:55.254Z,101955.34
2019-05-30T03:41:28.588Z,101957.02
2019-05-30T03:44:03.843Z,101956.15
2019-05-30T03:46:42.801Z,101949.16
2019-05-30T03:49:21.876Z,101962.73
2019-05-30T03:51:58.363Z,101961.48
2019-05-30T03:54:32.809Z,101953.22
2019-05-30T03:57:20.841Z,101954.18
2019-05-30T04:00:08.529Z,101952.16
2019-05-30T04:03:15.438Z,101956.26
2019-05-30T04:05:56.741Z,101956.75
2019-05-30T04:08:33.244Z,101956.00
2019-05-30T04:11:11.971Z,101960.02
2019-05-30T04:13:53.534Z,101957.91
2019-05-30T04:16:27.499Z,101948.35
2019-05-30T04:19:01.049Z,101957.21
2019-05-30T04:21:35.964Z,101964.73
2019-05-30T04:24:12.359Z,101961.34
2019-05-30T04:26:45.613Z,101964.04
2019-05-30T04:29:19.187Z,101963.66
2019-05-30T04:31:52.699Z,101964.19
2019-05-30T04:34:26.178Z,101958.54
2019-05-30T04:36:59.656Z,101969.13
2019-05-30T04:39:33.139Z,101970.94
2019-05-30T04:42:06.677Z,101973.18
2019-05-30T04:44:40.173Z,101975.00
2019-05-30T04:47:14.265Z,101977.27
2019-05-30T04:49:49.032Z,101978.67
2019-05-30T04:52:24.749Z,101987.51
2019-05-30T04:54:57.844Z,101983.69
2019-05-30T04:57:31.624Z,101988.57
2019-05-30T05:00:05.711Z,101970.59
2019-05-30T05:02:39.599Z,101986.91
2019-05-30T05:05:13.755Z,101986.91
2019-05-30T05:07:50.667Z,101990.42
2019-05-30T05:10:24.684Z,101990.41
2019-05-30T05:12:58.171Z,101993.91
2019-05-30T05:15:32.662Z,102001.36
2019-05-30T05:18:06.699Z,101990.32
2019-05-30T05:20:40.189Z,101995.55
2019-05-30T05:23:13.634Z,101990.20
2019-05-30T05:25:59.756Z,101995.87
2019-05-30T05:28:22.210Z,101998.41
2019-05-30T05:30:55.652Z,101998.70
2019-05-30T05:33:29.133Z,101997.70
2019-05-30T05:36:02.652Z,102003.37
2019-05-30T05:38:36.208Z,102002.39
2019-05-30T05:41:09.680Z,102002.69
2019-05-30T05:43:43.171Z,102008.25
2019-05-30T05:46:16.631Z,102005.50
2019-05-30T05:48:50.125Z,102008.47
2019-05-30T05:51:25.818Z,102006.98
2019-05-30T05:53:59.352Z,102008.09
2019-05-30T05:56:33.951Z,102003.92
2019-05-30T05:59:07.467Z,102007.31
2019-05-30T06:01:40.936Z,102000.49
2019-05-30T06:04:14.453Z,102001.62
2019-05-30T06:06:47.924Z,102003.83
2019-05-30T06:09:22.594Z,102005.40
2019-05-30T06:11:56.695Z,102010.42
2019-05-30T06:14:30.198Z,102007.62
2019-05-30T06:17:05.025Z,102008.78
2019-05-30T06:19:46.275Z,102010.48
2019-05-30T06:22:13.611Z,102014.56
2019-05-30T06:24:47.135Z,102009.81
2019-05-30T06:27:21.833Z,102012.86
2019-05-30T06:29:55.406Z,102007.75
2019-05-30T06:32:28.956Z,102013.50
2019-05-30T06:35:03.490Z,102015.42
2019-05-30T06:37:37.102Z,102011.89
2019-05-30T06:40:11.157Z,102013.40
2019-05-30T06:42:44.585Z,102015.53
2019-05-30T06:45:20.927Z,102018.38
2019-05-30T06:47:54.144Z,102022.44
2019-05-30T06:50:29.035Z,102024.11
2019-05-30T06:53:02.967Z,102022.70
2019-05-30T06:55:37.424Z,102024.77
2019-05-30T06:58:10.906Z,102020.00
2019-05-30T07:00:45.782Z,102022.87
2019-05-30T07:03:19.912Z,102024.95
2019-05-30T07:05:53.829Z,102020.59
2019-05-30T07:08:28.785Z,102018.91
2019-05-30T07:11:02.525Z,102013.40
2019-05-30T07:13:36.131Z,102011.12
2019-05-30T07:16:09.996Z,102014.39
2019-05-30T07:18:44.386Z,102018.63
2019-05-30T07:21:17.860Z,102014.73
2019-05-30T07:23:51.363Z,102019.93
2019-05-30T07:26:25.869Z,102018.47
2019-05-30T07:29:00.716Z,102014.22
2019-05-30T07:31:34.527Z,102010.83
2019-05-30T07:34:07.983Z,102015.56
2019-05-30T07:36:41.895Z,102004.55
2019-05-30T07:39:15.385Z,102007.92
2019-05-30T07:42:04.996Z,102007.62
2019-05-30T07:44:24.564Z,102011.98
2019-05-30T07:46:59.204Z,102005.56
2019-05-30T07:49:32.716Z,102016.12
2019-05-30T07:52:06.850Z,102017.30
2019-05-30T07:54:40.241Z,102017.09
2019-05-30T07:57:13.711Z,102026.27
2019-05-30T07:59:47.540Z,102023.84
2019-05-30T08:02:21.245Z,102011.48
2019-05-30T08:04:55.670Z,102017.37
2019-05-30T08:07:29.148Z,102018.03
2019-05-30T08:10:02.633Z,102015.83
2019-05-30T08:12:36.265Z,102018.34
2019-05-30T08:15:10.969Z,102007.48
2019-05-30T08:17:49.946Z,102014.98
2019-05-30T08:20:23.503Z,102014.23
2019-05-30T08:22:56.975Z,102008.93
2019-05-30T08:25:30.431Z,102012.41
2019-05-30T08:28:03.865Z,102012.38
2019-05-30T08:30:38.617Z,102006.44
2019-05-30T08:33:12.229Z,102002.95
2019-05-30T08:35:49.922Z,102006.09
2019-05-30T08:38:21.097Z,102008.95
2019-05-30T08:40:54.567Z,102015.28
2019-05-30T08:43:29.223Z,102001.59
2019-05-30T08:46:03.207Z,102001.74
2019-05-30T08:48:36.754Z,102000.63
2019-05-30T08:51:10.220Z,102003.18
2019-05-30T08:53:43.701Z,101999.76
2019-05-30T08:56:17.172Z,101997.00
2019-05-30T08:58:50.814Z,101996.98
2019-05-30T09:01:24.258Z,101994.80
2019-05-30T09:03:58.313Z,102002.47
2019-05-30T09:06:31.754Z,101997.09
2019-05-30T09:09:06.806Z,101996.70
2019-05-30T09:11:40.544Z,101992.55
2019-05-30T09:14:14.105Z,101992.22
2019-05-30T09:16:48.226Z,101988.42
2019-05-30T09:19:22.809Z,101986.29
2019-05-30T09:21:56.219Z,101981.16
2019-05-30T09:24:29.665Z,101976.33
2019-05-30T09:27:03.125Z,101976.68
2019-05-30T09:29:37.898Z,101976.09
2019-05-30T09:32:11.661Z,101972.66
2019-05-30T09:34:46.997Z,101973.53
2019-05-30T09:37:20.531Z,101977.77
2019-05-30T09:39:54.458Z,101967.80
2019-05-30T09:42:27.870Z,101971.08
2019-05-30T09:45:01.177Z,101974.98
2019-05-30T09:47:34.379Z,101965.36
2019-05-30T09:50:08.055Z,101958.58
2019-05-30T09:52:42.210Z,101955.90
2019-05-30T09:55:18.266Z,101955.87
2019-05-30T09:57:51.787Z,101958.80
2019-05-30T10:00:27.433Z,101957.48
2019-05-30T10:03:00.813Z,101953.61
2019-05-30T10:05:34.291Z,101961.20
2019-05-30T10:08:07.803Z,101965.89
2019-05-30T10:10:43.829Z,101957.34
2019-05-30T10:13:17.620Z,101959.39
2019-05-30T10:15:52.717Z,101960.70
2019-05-30T10:18:27.212Z,101956.51
2019-05-30T10:21:00.773Z,101956.86
2019-05-30T10:23:34.754Z,101956.66
2019-05-30T10:26:08.464Z,101950.80
2019-05-30T10:28:41.872Z,101951.05
2019-05-30T10:31:15.304Z,101946.36
2019-05-30T10:33:49.410Z,101947.58
2019-05-30T10:36:23.260Z,101937.45
2019-05-30T10:38:56.768Z,101941.79
2019-05-30T10:41:30.633Z,101942.80
2019-05-30T10:44:04.103Z,101945.61
2019-05-30T10:46:37.627Z,101944.00
2019-05-30T10:49:12.959Z,101933.17
2019-05-30T10:51:47.776Z,101931.72
2019-05-30T10:54:26.255Z,101927.52
2019-05-30T10:57:00.873Z,101919.39
2019-05-30T10:59:34.378Z,101922.72
2019-05-30T11:02:12.204Z,101920.27
2019-05-30T11:04:47.820Z,101916.18
2019-05-30T11:07:33.798Z,101909.56
2019-05-30T11:10:12.746Z,101911.44
2019-05-30T11:12:46.662Z,101910.47
2019-05-30T11:15:21.350Z,101911.56
2019-05-30T11:17:56.186Z,101912.95
2019-05-30T11:20:29.706Z,101914.42
2019-05-30T11:23:03.040Z,101911.37
2019-05-30T11:25:36.760Z,101911.23
2019-05-30T11:28:10.360Z,101903.41
2019-05-30T11:30:43.699Z,101904.58
2019-05-30T11:33:17.085Z,101900.95
2019-05-30T11:35:51.012Z,101895.86
2019-05-30T11:38:24.413Z,101892.84
2019-05-30T11:40:57.710Z,101886.27
2019-05-30T11:43:31.077Z,101888.27
2019-05-30T11:46:04.316Z,101881.70
2019-05-30T11:48:37.647Z,101880.14
2019-05-30T11:51:10.905Z,101879.72
2019-05-30T11:53:44.149Z,101885.45
2019-05-30T11:56:17.409Z,101880.09
2019-05-30T11:58:51.941Z,101875.95
2019-05-30T12:01:25.827Z,101866.39
2019-05-30T12:04:00.678Z,101872.55
2019-05-30T12:06:34.020Z,101862.91
2019-05-30T12:09:09.025Z,101869.59
2019-05-30T12:11:42.325Z,101861.95
2019-05-30T12:14:15.494Z,101857.69
2019-05-30T12:16:48.655Z,101860.45
2019-05-30T12:19:21.881Z,101862.72
2019-05-30T12:21:55.608Z,101852.73
2019-05-30T12:24:29.303Z,101855.09
2019-05-30T12:27:02.618Z,101813.45
2019-05-30T12:29:35.969Z,101833.11
2019-05-30T12:32:09.396Z,101838.62
2019-05-30T12:34:42.770Z,101828.78
2019-05-30T12:37:16.642Z,101833.11
2019-05-30T12:39:50.136Z,101836.39
2019-05-30T12:42:25.879Z,101832.53
2019-05-30T12:44:59.353Z,101827.61
2019-05-30T12:47:32.685Z,101823.21
2019-05-30T12:50:07.817Z,101828.88
2019-05-30T12:52:42.196Z,101823.30
2019-05-30T12:55:15.943Z,101824.25
2019-05-30T12:57:49.511Z,101806.38
2019-05-30T13:00:26.989Z,101821.52
2019-05-30T13:03:00.971Z,101812.55
2019-05-30T13:05:34.368Z,101812.92
2019-05-30T13:08:20.523Z,101809.98
2019-05-30T13:10:44.229Z,101805.36
2019-05-30T13:13:17.756Z,101810.75
2019-05-30T13:15:54.590Z,101803.83
2019-05-30T13:18:27.925Z,101814.20
2019-05-30T13:21:02.154Z,101805.30
2019-05-30T13:23:35.956Z,101804.22
2019-05-30T13:26:09.649Z,101807.75
2019-05-30T13:28:43.212Z,101806.28
2019-05-30T13:31:16.834Z,101804.30
2019-05-30T13:33:50.175Z,101798.77
2019-05-30T13:36:23.718Z,101790.56
2019-05-30T13:38:57.239Z,101786.61
2019-05-30T13:41:30.824Z,101786.13
2019-05-30T13:44:06.476Z,101794.36
2019-05-30T13:46:38.911Z,101785.20
2019-05-30T13:49:12.229Z,101782.67
2019-05-30T13:51:45.571Z,101784.33
2019-05-30T13:54:18.903Z,101784.28
2019-05-30T13:56:52.205Z,101775.89
2019-05-30T13:59:25.593Z,101780.70
2019-05-30T14:01:59.839Z,101782.77
2019-05-30T14:04:33.147Z,101773.47
2019-05-30T14:07:06.531Z,101773.83
2019-05-30T14:09:39.756Z,101765.02
2019-05-30T14:12:13.022Z,101773.25
2019-05-30T14:14:46.244Z,101769.60
2019-05-30T14:17:19.637Z,101767.78
2019-05-30T14:19:52.907Z,101773.35
2019-05-30T14:22:26.172Z,101777.13
2019-05-30T14:24:59.627Z,101768.98
2019-05-30T14:27:34.214Z,101767.41
2019-05-30T14:30:09.172Z,101769.61
2019-05-30T14:32:42.415Z,101775.82
2019-05-30T14:35:17.732Z,101764.72
2019-05-30T14:37:51.077Z,101763.59
2019-05-30T14:40:24.510Z,101760.86
2019-05-30T14:42:57.773Z,101755.50
2019-05-30T14:45:30.921Z,101761.66
2019-05-30T14:48:04.529Z,101761.93
2019-05-30T14:50:37.796Z,101764.45
2019-05-30T14:53:11.063Z,101767.66
2019-05-30T14:55:44.190Z,101773.56
2019-05-30T14:58:17.854Z,101768.55
2019-05-30T15:00:51.018Z,101770.84
2019-05-30T15:03:24.401Z,101767.16
2019-05-30T15:05:57.750Z,101765.92
2019-05-30T15:08:31.112Z,101765.06
2019-05-30T15:11:05.422Z,101763.25
2019-05-30T15:13:38.811Z,101756.52
2019-05-30T15:16:13.030Z,101754.46
2019-05-30T15:18:46.445Z,101754.42
2019-05-30T15:21:19.670Z,101755.09
2019-05-30T15:23:53.183Z,101754.42
2019-05-30T15:26:26.613Z,101754.18
2019-05-30T15:29:00.079Z,101755.13
2019-05-30T15:31:33.558Z,101752.70
2019-05-30T15:34:08.386Z,101757.52
2019-05-30T15:36:44.498Z,101754.38
2019-05-30T15:39:30.687Z,101750.75
2019-05-30T15:41:53.096Z,101749.22
2019-05-30T15:44:26.629Z,101748.64
2019-05-30T15:47:00.448Z,101749.50
2019-05-30T15:49:33.896Z,101738.09
2019-05-30T15:52:08.689Z,101739.95
2019-05-30T15:54:42.161Z,101739.09
2019-05-30T15:57:15.696Z,101739.92
2019-05-30T15:59:48.924Z,101739.20
2019-05-30T16:02:22.066Z,101734.91
2019-05-30T16:04:55.509Z,101741.26
2019-05-30T16:07:28.997Z,101733.01
2019-05-30T16:10:02.363Z,101734.67
2019-05-30T16:12:35.663Z,101734.20
2019-05-30T16:15:09.740Z,101731.95
2019-05-30T16:17:42.959Z,101730.20
2019-05-30T16:20:17.894Z,101736.77
2019-05-30T16:22:51.280Z,101722.13
2019-05-30T16:25:24.506Z,101735.68
2019-05-30T16:27:57.582Z,101732.57
2019-05-30T16:30:30.924Z,101727.99
2019-05-30T16:33:04.366Z,101729.61
2019-05-30T16:35:37.761Z,101726.42
2019-05-30T16:38:11.179Z,101721.08
2019-05-30T16:40:45.455Z,101721.13
2019-05-30T16:43:18.721Z,101723.75
2019-05-30T16:45:52.011Z,101723.33
2019-05-30T16:48:25.310Z,101715.26
2019-05-30T16:50:58.636Z,101716.27
2019-05-30T16:53:31.887Z,101712.50
2019-05-30T16:56:05.366Z,101709.44
2019-05-30T16:58:38.614Z,101712.34
2019-05-30T17:01:11.862Z,101707.40
2019-05-30T17:03:45.238Z,101708.34
2019-05-30T17:06:18.588Z,101709.73
2019-05-30T17:08:51.887Z,101707.59
2019-05-30T17:11:25.615Z,101707.25
2019-05-30T17:13:59.150Z,101707.86
2019-05-30T17:16:32.439Z,101708.25
2019-05-30T17:19:06.758Z,101703.91
2019-05-30T17:21:40.156Z,101703.23
2019-05-30T17:24:13.715Z,101703.23
2019-05-30T17:26:51.228Z,101702.03
2019-05-30T17:29:23.556Z,101695.92
2019-05-30T17:31:57.126Z,101686.77
2019-05-30T17:34:30.482Z,101696.25
2019-05-30T17:37:04.052Z,101690.53
2019-05-30T17:39:37.481Z,101694.30
2019-05-30T17:42:10.808Z,101692.62
2019-05-30T17:44:46.649Z,101697.63
2019-05-30T17:47:23.876Z,101691.95
2019-05-30T17:50:17.329Z,101695.36
2019-05-30T17:52:54.306Z,101691.14
2019-05-30T17:55:28.010Z,101699.72
2019-05-30T17:58:01.508Z,101672.80
2019-05-30T18:00:34.884Z,101705.70
2019-05-30T18:03:08.103Z,101707.08
2019-05-30T18:05:41.350Z,101710.86
2019-05-30T18:08:14.683Z,101707.85
2019-05-30T18:10:53.836Z,101701.75
2019-05-30T18:13:23.039Z,101708.24
2019-05-30T18:15:56.334Z,101711.03
2019-05-30T18:18:29.550Z,101706.39
2019-05-30T18:21:02.904Z,101708.70
2019-05-30T18:23:36.329Z,101715.12
2019-05-30T18:26:09.523Z,101709.95
2019-05-30T18:28:42.767Z,101715.49
2019-05-30T18:31:16.012Z,101711.78
2019-05-30T18:33:49.358Z,101719.67
2019-05-30T18:36:22.600Z,101722.54
2019-05-30T18:38:55.946Z,101717.45
2019-05-30T18:41:29.137Z,101724.03
2019-05-30T18:44:02.489Z,101720.75
2019-05-30T18:46:38.559Z,101721.44
2019-05-30T18:49:10.759Z,101719.01
2019-05-30T18:51:44.135Z,101723.27
2019-05-30T18:54:17.519Z,101723.95
2019-05-30T18:56:51.033Z,101723.86
2019-05-30T18:59:25.469Z,101720.41
2019-05-30T19:01:58.914Z,101717.50
2019-05-30T19:04:33.580Z,101719.48
2019-05-30T19:07:07.177Z,101723.80
2019-05-30T19:09:40.660Z,101727.63
2019-05-30T19:12:14.834Z,101727.47
2019-05-30T19:14:48.262Z,101718.80
2019-05-30T19:17:21.401Z,101724.76
2019-05-30T19:19:54.673Z,101724.98
2019-05-30T19:22:28.431Z,101724.27
2019-05-30T19:25:02.208Z,101730.73
2019-05-30T19:27:37.109Z,101728.34
2019-05-30T19:30:18.236Z,101729.89
2019-05-30T19:32:52.241Z,101727.85
2019-05-30T19:35:28.878Z,101733.33
2019-05-30T19:38:00.794Z,101735.20
2019-05-30T19:40:34.294Z,101730.57
2019-05-30T19:43:07.718Z,101732.05
2019-05-30T19:45:41.162Z,101738.46
2019-05-30T19:48:14.493Z,101739.07
2019-05-30T19:50:48.019Z,101730.38
2019-05-30T19:53:21.378Z,101728.28
2019-05-30T19:55:54.753Z,101731.54
2019-05-30T19:58:29.434Z,101736.50
2019-05-30T20:01:03.900Z,101730.95
2019-05-30T20:03:43.579Z,101735.91
2019-05-30T20:06:12.338Z,101728.03
2019-05-30T20:08:55.103Z,101725.59
2019-05-30T20:11:20.956Z,101726.62
2019-05-30T20:13:54.257Z,101734.23
2019-05-30T20:16:27.639Z,101736.16
2019-05-30T20:19:01.069Z,101734.06
2019-05-30T20:21:35.671Z,101741.59
2019-05-30T20:24:09.194Z,101731.56
2019-05-30T20:26:42.832Z,101736.09
2019-05-30T20:29:17.501Z,101731.33
2019-05-30T20:31:51.120Z,101730.10
2019-05-30T20:34:24.381Z,101728.87
2019-05-30T20:36:57.786Z,101736.88
2019-05-30T20:39:31.175Z,101733.94
2019-05-30T20:42:18.309Z,101734.59
2019-05-30T20:44:39.397Z,101740.44
2019-05-30T20:47:12.760Z,101737.42
2019-05-30T20:49:47.499Z,101732.20
2019-05-30T20:52:21.048Z,101743.37
2019-05-30T20:54:55.480Z,101739.94
2019-05-30T20:57:28.990Z,101732.88
2019-05-30T21:00:02.514Z,101735.16
2019-05-30T21:02:38.747Z,101737.90
2019-05-30T21:05:13.429Z,101733.99
2019-05-30T21:07:47.641Z,101734.47
2019-05-30T21:10:22.846Z,101741.16
2019-05-30T21:12:59.188Z,101735.88
2019-05-30T21:15:37.452Z,101728.48
2019-05-30T21:18:11.006Z,101737.36
2019-05-30T21:20:44.497Z,101738.45
2019-05-30T21:23:18.011Z,101732.73
2019-05-30T21:25:52.512Z,101726.64
2019-05-30T21:28:26.052Z,101733.33
2019-05-30T21:30:59.965Z,101725.48
2019-05-30T21:33:33.546Z,101733.42
2019-05-30T21:36:06.966Z,101730.50
2019-05-30T21:38:40.466Z,101732.78
2019-05-30T21:41:14.019Z,101731.98
2019-05-30T21:43:49.160Z,101728.52
2019-05-30T21:46:22.667Z,101732.55
2019-05-30T21:48:56.506Z,101731.31
2019-05-30T21:51:31.205Z,101725.30
2019-05-30T21:54:08.046Z,101724.95
2019-05-30T21:56:43.656Z,101728.95
2019-05-30T21:59:19.065Z,101729.06
2019-05-30T22:01:57.185Z,101724.70
2019-05-30T22:04:27.618Z,101720.80
2019-05-30T22:07:01.084Z,101718.22
2019-05-30T22:09:34.599Z,101718.64
2019-05-30T22:12:08.622Z,101723.13
2019-05-30T22:14:42.105Z,101728.07
2019-05-30T22:17:15.538Z,101718.42
2019-05-30T22:19:50.034Z,101725.06
2019-05-30T22:22:23.614Z,101730.91
2019-05-30T22:24:57.578Z,101729.20
2019-05-30T22:27:31.029Z,101728.44
2019-05-30T22:30:05.096Z,101724.02
2019-05-30T22:32:38.629Z,101718.69
2019-05-30T22:35:12.328Z,101719.59
2019-05-30T22:37:46.802Z,101722.23
2019-05-30T22:40:20.322Z,101723.96
2019-05-30T22:42:54.600Z,101722.23
2019-05-30T22:45:28.063Z,101720.46
2019-05-30T22:48:01.514Z,101721.37
2019-05-30T22:50:35.122Z,101717.03
2019-05-30T22:53:08.656Z,101722.81
2019-05-30T22:55:42.236Z,101724.62
2019-05-30T22:58:15.692Z,101721.57
2019-05-30T23:00:49.965Z,101722.91
2019-05-30T23:03:24.687Z,101726.97
2019-05-30T23:05:58.592Z,101723.87
2019-05-30T23:08:32.180Z,101724.73
2019-05-30T23:11:06.342Z,101728.24
2019-05-30T23:13:40.941Z,101728.71
2019-05-30T23:16:14.656Z,101720.83
2019-05-30T23:18:48.409Z,101726.57
2019-05-30T23:21:21.887Z,101720.88
2019-05-30T23:23:55.397Z,101724.84
2019-05-30T23:26:28.805Z,101713.83
2019-05-30T23:29:02.270Z,101711.64
2019-05-30T23:31:35.632Z,101716.06
2019-05-30T23:34:08.971Z,101716.11
2019-05-30T23:36:42.227Z,101718.75
2019-05-30T23:39:15.510Z,101696.92
2019-05-30T23:41:48.941Z,101719.72
2019-05-30T23:44:24.175Z,101712.26
2019-05-30T23:46:57.933Z,101713.62
2019-05-30T23:49:31.214Z,101712.77
2019-05-30T23:52:04.588Z,101715.00
2019-05-30T23:54:37.845Z,101705.39
2019-05-30T23:57:11.096Z,101711.09
2019-05-30T23:59:44.447Z,101705.81
